sensor_id;sensor_type;location;lat;lon;timestamp;P1;durP1;ratioP1;P2;durP2;ratioP2
12052;SDS011;6087;48.982;12.064;2023-05-07T00:00:03;3.22;;;2.80;;
12052;SDS011;6087;48.982;12.064;2023-05-07T00:02:33;2.67;;;2.47;;
12052;SDS011;6087;48.982;12.064;2023-05-07T00:05:00;3.80;;;2.55;;
12052;SDS011;6087;48.982;12.064;2023-05-07T00:07:27;3.55;;;2.85;;
12052;SDS011;6087;48.982;12.064;2023-05-07T00:09:54;3.55;;;2.60;;
12052;SDS011;6087;48.982;12.064;2023-05-07T00:12:21;4.55;;;2.92;;
12052;SDS011;6087;48.982;12.064;2023-05-07T00:14:48;3.00;;;2.70;;
12052;SDS011;6087;48.982;12.064;2023-05-07T00:17:16;3.35;;;3.03;;
12052;SDS011;6087;48.982;12.064;2023-05-07T00:19:43;2.90;;;2.70;;
12052;SDS011;6087;48.982;12.064;2023-05-07T00:22:09;5.43;;;3.15;;
12052;SDS011;6087;48.982;12.064;2023-05-07T00:24:36;3.30;;;2.95;;
12052;SDS011;6087;48.982;12.064;2023-05-07T00:27:03;3.60;;;3.30;;
12052;SDS011;6087;48.982;12.064;2023-05-07T00:29:30;3.42;;;3.13;;
12052;SDS011;6087;48.982;12.064;2023-05-07T00:31:57;3.88;;;3.58;;
12052;SDS011;6087;48.982;12.064;2023-05-07T00:34:25;3.55;;;3.25;;
12052;SDS011;6087;48.982;12.064;2023-05-07T00:36:53;3.50;;;2.92;;
12052;SDS011;6087;48.982;12.064;2023-05-07T00:39:20;3.17;;;2.92;;
12052;SDS011;6087;48.982;12.064;2023-05-07T00:41:49;3.40;;;3.15;;
12052;SDS011;6087;48.982;12.064;2023-05-07T00:44:16;3.58;;;3.22;;
12052;SDS011;6087;48.982;12.064;2023-05-07T00:46:43;3.25;;;3.05;;
12052;SDS011;6087;48.982;12.064;2023-05-07T00:49:14;4.72;;;3.17;;
12052;SDS011;6087;48.982;12.064;2023-05-07T00:51:43;3.97;;;3.50;;
12052;SDS011;6087;48.982;12.064;2023-05-07T00:54:10;4.20;;;3.15;;
12052;SDS011;6087;48.982;12.064;2023-05-07T00:56:38;3.22;;;2.80;;
12052;SDS011;6087;48.982;12.064;2023-05-07T00:59:05;2.90;;;2.70;;
12052;SDS011;6087;48.982;12.064;2023-05-07T01:01:35;5.00;;;3.40;;
12052;SDS011;6087;48.982;12.064;2023-05-07T01:04:02;3.00;;;2.80;;
12052;SDS011;6087;48.982;12.064;2023-05-07T01:06:29;3.38;;;2.97;;
12052;SDS011;6087;48.982;12.064;2023-05-07T01:08:59;3.30;;;3.08;;
12052;SDS011;6087;48.982;12.064;2023-05-07T01:11:27;3.17;;;2.78;;
12052;SDS011;6087;48.982;12.064;2023-05-07T01:13:54;4.28;;;2.95;;
12052;SDS011;6087;48.982;12.064;2023-05-07T01:16:21;3.40;;;2.90;;
12052;SDS011;6087;48.982;12.064;2023-05-07T01:18:48;6.25;;;2.88;;
12052;SDS011;6087;48.982;12.064;2023-05-07T01:21:15;3.90;;;3.03;;
12052;SDS011;6087;48.982;12.064;2023-05-07T01:23:45;4.70;;;2.75;;
12052;SDS011;6087;48.982;12.064;2023-05-07T01:26:13;3.65;;;3.17;;
12052;SDS011;6087;48.982;12.064;2023-05-07T01:28:40;3.92;;;3.40;;
12052;SDS011;6087;48.982;12.064;2023-05-07T01:31:06;3.90;;;3.60;;
12052;SDS011;6087;48.982;12.064;2023-05-07T01:33:35;3.40;;;3.10;;
12052;SDS011;6087;48.982;12.064;2023-05-07T01:36:04;4.28;;;3.47;;
12052;SDS011;6087;48.982;12.064;2023-05-07T01:38:33;4.18;;;3.75;;
12052;SDS011;6087;48.982;12.064;2023-05-07T01:41:03;5.72;;;4.05;;
12052;SDS011;6087;48.982;12.064;2023-05-07T01:43:31;3.88;;;3.55;;
12052;SDS011;6087;48.982;12.064;2023-05-07T01:45:58;5.80;;;3.38;;
12052;SDS011;6087;48.982;12.064;2023-05-07T01:48:27;5.22;;;3.83;;
12052;SDS011;6087;48.982;12.064;2023-05-07T01:50:55;4.18;;;3.70;;
12052;SDS011;6087;48.982;12.064;2023-05-07T01:53:22;4.30;;;3.20;;
12052;SDS011;6087;48.982;12.064;2023-05-07T01:55:49;3.72;;;3.42;;
12052;SDS011;6087;48.982;12.064;2023-05-07T01:58:17;3.83;;;3.22;;
12052;SDS011;6087;48.982;12.064;2023-05-07T02:00:45;3.72;;;3.33;;
12052;SDS011;6087;48.982;12.064;2023-05-07T02:03:12;4.45;;;3.65;;
12052;SDS011;6087;48.982;12.064;2023-05-07T02:05:39;4.20;;;3.80;;
12052;SDS011;6087;48.982;12.064;2023-05-07T02:08:06;4.93;;;3.80;;
12052;SDS011;6087;48.982;12.064;2023-05-07T02:10:33;4.47;;;3.95;;
12052;SDS011;6087;48.982;12.064;2023-05-07T02:13:01;4.38;;;3.97;;
12052;SDS011;6087;48.982;12.064;2023-05-07T02:15:30;4.00;;;3.58;;
12052;SDS011;6087;48.982;12.064;2023-05-07T02:17:57;4.05;;;3.75;;
12052;SDS011;6087;48.982;12.064;2023-05-07T02:20:26;5.07;;;3.80;;
12052;SDS011;6087;48.982;12.064;2023-05-07T02:22:53;6.47;;;3.65;;
12052;SDS011;6087;48.982;12.064;2023-05-07T02:25:20;4.97;;;4.15;;
12052;SDS011;6087;48.982;12.064;2023-05-07T02:27:47;4.45;;;3.72;;
12052;SDS011;6087;48.982;12.064;2023-05-07T02:30:14;4.68;;;3.92;;
12052;SDS011;6087;48.982;12.064;2023-05-07T02:32:46;4.95;;;4.22;;
12052;SDS011;6087;48.982;12.064;2023-05-07T02:35:14;4.63;;;4.15;;
12052;SDS011;6087;48.982;12.064;2023-05-07T02:37:41;5.38;;;4.80;;
12052;SDS011;6087;48.982;12.064;2023-05-07T02:40:11;5.35;;;4.85;;
12052;SDS011;6087;48.982;12.064;2023-05-07T02:42:39;5.15;;;4.65;;
12052;SDS011;6087;48.982;12.064;2023-05-07T02:45:06;4.35;;;4.03;;
12052;SDS011;6087;48.982;12.064;2023-05-07T02:47:35;6.82;;;4.68;;
12052;SDS011;6087;48.982;12.064;2023-05-07T02:50:07;6.38;;;4.95;;
12052;SDS011;6087;48.982;12.064;2023-05-07T02:52:34;5.03;;;4.55;;
12052;SDS011;6087;48.982;12.064;2023-05-07T02:55:07;6.47;;;5.82;;
12052;SDS011;6087;48.982;12.064;2023-05-07T02:57:35;5.00;;;4.60;;
12052;SDS011;6087;48.982;12.064;2023-05-07T03:00:10;5.57;;;5.07;;
12052;SDS011;6087;48.982;12.064;2023-05-07T03:02:40;9.10;;;5.60;;
12052;SDS011;6087;48.982;12.064;2023-05-07T03:05:09;6.22;;;5.63;;
12052;SDS011;6087;48.982;12.064;2023-05-07T03:07:37;6.22;;;5.25;;
12052;SDS011;6087;48.982;12.064;2023-05-07T03:10:05;5.60;;;5.10;;
12052;SDS011;6087;48.982;12.064;2023-05-07T03:12:32;10.32;;;5.40;;
12052;SDS011;6087;48.982;12.064;2023-05-07T03:14:59;5.80;;;5.28;;
12052;SDS011;6087;48.982;12.064;2023-05-07T03:17:26;6.18;;;5.57;;
12052;SDS011;6087;48.982;12.064;2023-05-07T03:19:56;5.68;;;5.18;;
12052;SDS011;6087;48.982;12.064;2023-05-07T03:22:25;5.47;;;4.97;;
12052;SDS011;6087;48.982;12.064;2023-05-07T03:24:54;6.82;;;5.68;;
12052;SDS011;6087;48.982;12.064;2023-05-07T03:27:29;5.90;;;5.30;;
12052;SDS011;6087;48.982;12.064;2023-05-07T03:29:56;6.28;;;5.28;;
12052;SDS011;6087;48.982;12.064;2023-05-07T03:32:23;8.90;;;5.30;;
12052;SDS011;6087;48.982;12.064;2023-05-07T03:34:50;7.03;;;5.90;;
12052;SDS011;6087;48.982;12.064;2023-05-07T03:37:18;5.80;;;5.22;;
12052;SDS011;6087;48.982;12.064;2023-05-07T03:39:46;6.22;;;5.55;;
12052;SDS011;6087;48.982;12.064;2023-05-07T03:42:14;6.45;;;5.70;;
12052;SDS011;6087;48.982;12.064;2023-05-07T03:44:41;7.00;;;6.22;;
12052;SDS011;6087;48.982;12.064;2023-05-07T03:47:08;6.40;;;5.80;;
12052;SDS011;6087;48.982;12.064;2023-05-07T03:49:36;7.40;;;6.15;;
12052;SDS011;6087;48.982;12.064;2023-05-07T03:52:12;6.35;;;5.75;;
12052;SDS011;6087;48.982;12.064;2023-05-07T03:54:39;6.80;;;5.90;;
12052;SDS011;6087;48.982;12.064;2023-05-07T03:57:08;6.38;;;5.78;;
12052;SDS011;6087;48.982;12.064;2023-05-07T03:59:35;6.43;;;5.82;;
12052;SDS011;6087;48.982;12.064;2023-05-07T04:02:02;7.20;;;6.47;;
12052;SDS011;6087;48.982;12.064;2023-05-07T04:04:32;6.53;;;5.93;;
12052;SDS011;6087;48.982;12.064;2023-05-07T04:07:00;6.20;;;5.70;;
12052;SDS011;6087;48.982;12.064;2023-05-07T04:09:28;6.55;;;5.95;;
12052;SDS011;6087;48.982;12.064;2023-05-07T04:11:55;7.22;;;6.10;;
12052;SDS011;6087;48.982;12.064;2023-05-07T04:14:24;5.78;;;5.28;;
12052;SDS011;6087;48.982;12.064;2023-05-07T04:16:51;7.97;;;6.03;;
12052;SDS011;6087;48.982;12.064;2023-05-07T04:19:18;6.30;;;5.70;;
12052;SDS011;6087;48.982;12.064;2023-05-07T04:21:45;6.72;;;6.03;;
12052;SDS011;6087;48.982;12.064;2023-05-07T04:24:11;5.63;;;5.03;;
12052;SDS011;6087;48.982;12.064;2023-05-07T04:26:39;6.65;;;5.93;;
12052;SDS011;6087;48.982;12.064;2023-05-07T04:29:06;7.10;;;6.45;;
12052;SDS011;6087;48.982;12.064;2023-05-07T04:31:35;6.80;;;6.10;;
12052;SDS011;6087;48.982;12.064;2023-05-07T04:34:01;7.35;;;6.65;;
12052;SDS011;6087;48.982;12.064;2023-05-07T04:36:29;6.25;;;5.63;;
12052;SDS011;6087;48.982;12.064;2023-05-07T04:38:58;6.75;;;6.13;;
12052;SDS011;6087;48.982;12.064;2023-05-07T04:41:25;6.28;;;5.68;;
12052;SDS011;6087;48.982;12.064;2023-05-07T04:43:54;7.40;;;5.88;;
12052;SDS011;6087;48.982;12.064;2023-05-07T04:46:22;7.32;;;6.60;;
12052;SDS011;6087;48.982;12.064;2023-05-07T04:48:51;7.32;;;6.63;;
12052;SDS011;6087;48.982;12.064;2023-05-07T04:51:18;7.90;;;6.70;;
12052;SDS011;6087;48.982;12.064;2023-05-07T04:53:46;7.43;;;6.63;;
12052;SDS011;6087;48.982;12.064;2023-05-07T04:56:13;7.82;;;7.10;;
12052;SDS011;6087;48.982;12.064;2023-05-07T04:58:40;10.10;;;6.78;;
12052;SDS011;6087;48.982;12.064;2023-05-07T05:01:07;9.02;;;7.05;;
12052;SDS011;6087;48.982;12.064;2023-05-07T05:03:34;8.20;;;7.10;;
12052;SDS011;6087;48.982;12.064;2023-05-07T05:06:05;7.95;;;6.38;;
12052;SDS011;6087;48.982;12.064;2023-05-07T05:08:34;7.70;;;7.00;;
12052;SDS011;6087;48.982;12.064;2023-05-07T05:11:04;8.95;;;7.38;;
12052;SDS011;6087;48.982;12.064;2023-05-07T05:13:31;8.18;;;7.38;;
12052;SDS011;6087;48.982;12.064;2023-05-07T05:15:58;9.07;;;6.85;;
12052;SDS011;6087;48.982;12.064;2023-05-07T05:18:25;9.63;;;7.15;;
12052;SDS011;6087;48.982;12.064;2023-05-07T05:20:52;7.28;;;6.55;;
12052;SDS011;6087;48.982;12.064;2023-05-07T05:23:21;7.95;;;7.00;;
12052;SDS011;6087;48.982;12.064;2023-05-07T05:25:48;10.13;;;6.80;;
12052;SDS011;6087;48.982;12.064;2023-05-07T05:28:15;7.85;;;6.63;;
12052;SDS011;6087;48.982;12.064;2023-05-07T05:30:41;8.38;;;6.95;;
12052;SDS011;6087;48.982;12.064;2023-05-07T05:33:09;7.72;;;6.93;;
12052;SDS011;6087;48.982;12.064;2023-05-07T05:35:35;7.18;;;6.47;;
12052;SDS011;6087;48.982;12.064;2023-05-07T05:38:03;7.30;;;6.60;;
12052;SDS011;6087;48.982;12.064;2023-05-07T05:40:31;9.18;;;6.57;;
12052;SDS011;6087;48.982;12.064;2023-05-07T05:42:58;8.75;;;6.72;;
12052;SDS011;6087;48.982;12.064;2023-05-07T05:45:34;8.82;;;6.40;;
12052;SDS011;6087;48.982;12.064;2023-05-07T05:48:05;8.65;;;6.80;;
12052;SDS011;6087;48.982;12.064;2023-05-07T05:50:33;6.38;;;5.85;;
12052;SDS011;6087;48.982;12.064;2023-05-07T05:53:08;7.13;;;6.38;;
12052;SDS011;6087;48.982;12.064;2023-05-07T05:55:46;8.23;;;6.80;;
12052;SDS011;6087;48.982;12.064;2023-05-07T05:58:16;7.00;;;6.28;;
12052;SDS011;6087;48.982;12.064;2023-05-07T06:00:43;7.05;;;5.63;;
12052;SDS011;6087;48.982;12.064;2023-05-07T06:03:11;7.30;;;6.38;;
12052;SDS011;6087;48.982;12.064;2023-05-07T06:05:37;7.22;;;6.60;;
12052;SDS011;6087;48.982;12.064;2023-05-07T06:08:05;9.95;;;6.57;;
12052;SDS011;6087;48.982;12.064;2023-05-07T06:10:33;7.78;;;6.60;;
12052;SDS011;6087;48.982;12.064;2023-05-07T06:13:03;7.38;;;6.68;;
12052;SDS011;6087;48.982;12.064;2023-05-07T06:15:29;7.30;;;6.60;;
12052;SDS011;6087;48.982;12.064;2023-05-07T06:17:56;10.00;;;6.60;;
12052;SDS011;6087;48.982;12.064;2023-05-07T06:20:23;8.40;;;6.05;;
12052;SDS011;6087;48.982;12.064;2023-05-07T06:22:51;6.80;;;6.15;;
12052;SDS011;6087;48.982;12.064;2023-05-07T06:25:18;8.38;;;5.95;;
12052;SDS011;6087;48.982;12.064;2023-05-07T06:27:51;7.05;;;6.35;;
12052;SDS011;6087;48.982;12.064;2023-05-07T06:30:28;6.97;;;6.22;;
12052;SDS011;6087;48.982;12.064;2023-05-07T06:32:55;6.93;;;6.32;;
12052;SDS011;6087;48.982;12.064;2023-05-07T06:35:22;7.70;;;6.10;;
12052;SDS011;6087;48.982;12.064;2023-05-07T06:37:51;7.60;;;5.55;;
12052;SDS011;6087;48.982;12.064;2023-05-07T06:40:25;6.28;;;5.70;;
12052;SDS011;6087;48.982;12.064;2023-05-07T06:42:52;6.65;;;6.10;;
12052;SDS011;6087;48.982;12.064;2023-05-07T06:45:19;7.07;;;5.05;;
12052;SDS011;6087;48.982;12.064;2023-05-07T06:47:47;7.10;;;5.85;;
12052;SDS011;6087;48.982;12.064;2023-05-07T06:50:14;8.40;;;5.80;;
12052;SDS011;6087;48.982;12.064;2023-05-07T06:52:45;6.82;;;5.85;;
12052;SDS011;6087;48.982;12.064;2023-05-07T06:55:12;6.50;;;5.80;;
12052;SDS011;6087;48.982;12.064;2023-05-07T06:57:45;6.80;;;6.10;;
12052;SDS011;6087;48.982;12.064;2023-05-07T07:00:12;7.18;;;6.53;;
12052;SDS011;6087;48.982;12.064;2023-05-07T07:02:40;5.82;;;5.32;;
12052;SDS011;6087;48.982;12.064;2023-05-07T07:05:08;6.05;;;5.50;;
12052;SDS011;6087;48.982;12.064;2023-05-07T07:07:35;6.35;;;5.75;;
12052;SDS011;6087;48.982;12.064;2023-05-07T07:10:02;5.72;;;5.28;;
12052;SDS011;6087;48.982;12.064;2023-05-07T07:12:30;6.55;;;5.95;;
12052;SDS011;6087;48.982;12.064;2023-05-07T07:14:57;6.22;;;5.47;;
12052;SDS011;6087;48.982;12.064;2023-05-07T07:17:24;6.47;;;5.72;;
12052;SDS011;6087;48.982;12.064;2023-05-07T07:19:51;5.85;;;5.25;;
12052;SDS011;6087;48.982;12.064;2023-05-07T07:22:19;5.30;;;4.80;;
12052;SDS011;6087;48.982;12.064;2023-05-07T07:24:46;5.78;;;5.07;;
12052;SDS011;6087;48.982;12.064;2023-05-07T07:27:13;5.82;;;5.32;;
12052;SDS011;6087;48.982;12.064;2023-05-07T07:29:40;5.78;;;5.28;;
12052;SDS011;6087;48.982;12.064;2023-05-07T07:32:07;5.45;;;4.95;;
12052;SDS011;6087;48.982;12.064;2023-05-07T07:34:34;5.45;;;4.88;;
12052;SDS011;6087;48.982;12.064;2023-05-07T07:37:01;7.57;;;4.78;;
12052;SDS011;6087;48.982;12.064;2023-05-07T07:39:32;5.47;;;4.45;;
12052;SDS011;6087;48.982;12.064;2023-05-07T07:41:59;5.32;;;4.53;;
12052;SDS011;6087;48.982;12.064;2023-05-07T07:44:29;6.22;;;4.60;;
12052;SDS011;6087;48.982;12.064;2023-05-07T07:46:59;5.50;;;5.00;;
12052;SDS011;6087;48.982;12.064;2023-05-07T07:49:26;4.70;;;4.30;;
12052;SDS011;6087;48.982;12.064;2023-05-07T07:51:53;5.28;;;4.40;;
12052;SDS011;6087;48.982;12.064;2023-05-07T07:54:21;4.57;;;4.05;;
12052;SDS011;6087;48.982;12.064;2023-05-07T07:56:49;5.65;;;3.90;;
12052;SDS011;6087;48.982;12.064;2023-05-07T07:59:16;4.75;;;4.18;;
12052;SDS011;6087;48.982;12.064;2023-05-07T08:01:44;4.10;;;3.70;;
12052;SDS011;6087;48.982;12.064;2023-05-07T08:04:11;5.05;;;3.85;;
12052;SDS011;6087;48.982;12.064;2023-05-07T08:06:41;3.70;;;3.40;;
12052;SDS011;6087;48.982;12.064;2023-05-07T08:09:08;3.60;;;3.30;;
12052;SDS011;6087;48.982;12.064;2023-05-07T08:11:35;3.30;;;3.00;;
12052;SDS011;6087;48.982;12.064;2023-05-07T08:14:03;5.57;;;3.08;;
12052;SDS011;6087;48.982;12.064;2023-05-07T08:16:30;4.32;;;3.55;;
12052;SDS011;6087;48.982;12.064;2023-05-07T08:18:57;3.22;;;2.92;;
12052;SDS011;6087;48.982;12.064;2023-05-07T08:21:23;3.13;;;2.88;;
12052;SDS011;6087;48.982;12.064;2023-05-07T08:23:51;3.53;;;2.90;;
12052;SDS011;6087;48.982;12.064;2023-05-07T08:26:18;4.15;;;3.03;;
12052;SDS011;6087;48.982;12.064;2023-05-07T08:28:45;4.70;;;4.20;;
12052;SDS011;6087;48.982;12.064;2023-05-07T08:31:13;5.72;;;3.40;;
12052;SDS011;6087;48.982;12.064;2023-05-07T08:33:40;3.28;;;3.00;;
12052;SDS011;6087;48.982;12.064;2023-05-07T08:36:07;5.30;;;3.33;;
12052;SDS011;6087;48.982;12.064;2023-05-07T08:38:34;3.75;;;3.45;;
12052;SDS011;6087;48.982;12.064;2023-05-07T08:41:01;3.58;;;3.30;;
12052;SDS011;6087;48.982;12.064;2023-05-07T08:43:28;3.50;;;3.20;;
12052;SDS011;6087;48.982;12.064;2023-05-07T08:45:57;4.03;;;3.63;;
12052;SDS011;6087;48.982;12.064;2023-05-07T08:48:29;4.60;;;3.60;;
12052;SDS011;6087;48.982;12.064;2023-05-07T08:50:57;3.35;;;2.90;;
12052;SDS011;6087;48.982;12.064;2023-05-07T08:53:24;3.50;;;3.20;;
12052;SDS011;6087;48.982;12.064;2023-05-07T08:55:51;4.50;;;4.10;;
12052;SDS011;6087;48.982;12.064;2023-05-07T08:58:19;3.80;;;3.50;;
12052;SDS011;6087;48.982;12.064;2023-05-07T09:00:46;3.83;;;3.53;;
12052;SDS011;6087;48.982;12.064;2023-05-07T09:03:13;4.22;;;3.83;;
12052;SDS011;6087;48.982;12.064;2023-05-07T09:05:42;4.05;;;3.65;;
12052;SDS011;6087;48.982;12.064;2023-05-07T09:08:09;5.18;;;3.65;;
12052;SDS011;6087;48.982;12.064;2023-05-07T09:10:40;3.97;;;3.67;;
12052;SDS011;6087;48.982;12.064;2023-05-07T09:13:11;3.85;;;3.55;;
12052;SDS011;6087;48.982;12.064;2023-05-07T09:15:42;3.83;;;3.53;;
12052;SDS011;6087;48.982;12.064;2023-05-07T09:18:09;4.47;;;4.07;;
12052;SDS011;6087;48.982;12.064;2023-05-07T09:20:36;4.43;;;3.92;;
12052;SDS011;6087;48.982;12.064;2023-05-07T09:23:05;5.07;;;3.90;;
12052;SDS011;6087;48.982;12.064;2023-05-07T09:25:33;5.13;;;3.67;;
12052;SDS011;6087;48.982;12.064;2023-05-07T09:28:01;3.95;;;3.60;;
12052;SDS011;6087;48.982;12.064;2023-05-07T09:30:30;3.85;;;3.55;;
12052;SDS011;6087;48.982;12.064;2023-05-07T09:32:58;3.83;;;3.53;;
12052;SDS011;6087;48.982;12.064;2023-05-07T09:35:26;4.55;;;3.63;;
12052;SDS011;6087;48.982;12.064;2023-05-07T09:37:56;4.05;;;3.75;;
12052;SDS011;6087;48.982;12.064;2023-05-07T09:40:26;5.22;;;4.03;;
12052;SDS011;6087;48.982;12.064;2023-05-07T09:42:55;4.13;;;3.45;;
12052;SDS011;6087;48.982;12.064;2023-05-07T09:45:28;4.38;;;3.88;;
12052;SDS011;6087;48.982;12.064;2023-05-07T09:47:56;3.90;;;3.60;;
12052;SDS011;6087;48.982;12.064;2023-05-07T09:50:27;4.13;;;3.55;;
12052;SDS011;6087;48.982;12.064;2023-05-07T09:52:57;3.88;;;3.58;;
12052;SDS011;6087;48.982;12.064;2023-05-07T09:55:26;3.58;;;3.22;;
12052;SDS011;6087;48.982;12.064;2023-05-07T09:57:54;7.55;;;3.38;;
12052;SDS011;6087;48.982;12.064;2023-05-07T10:00:22;2.97;;;2.75;;
12052;SDS011;6087;48.982;12.064;2023-05-07T10:02:52;3.28;;;2.97;;
12052;SDS011;6087;48.982;12.064;2023-05-07T10:05:19;2.85;;;2.65;;
12052;SDS011;6087;48.982;12.064;2023-05-07T10:07:47;3.53;;;3.33;;
12052;SDS011;6087;48.982;12.064;2023-05-07T10:10:14;5.53;;;3.17;;
12052;SDS011;6087;48.982;12.064;2023-05-07T10:12:43;3.47;;;3.13;;
12052;SDS011;6087;48.982;12.064;2023-05-07T10:15:11;3.20;;;3.00;;
12052;SDS011;6087;48.982;12.064;2023-05-07T10:17:39;3.05;;;2.63;;
12052;SDS011;6087;48.982;12.064;2023-05-07T10:20:07;3.75;;;3.45;;
12052;SDS011;6087;48.982;12.064;2023-05-07T10:22:37;5.13;;;3.92;;
12052;SDS011;6087;48.982;12.064;2023-05-07T10:25:05;4.57;;;3.75;;
12052;SDS011;6087;48.982;12.064;2023-05-07T10:27:36;3.50;;;3.20;;
12052;SDS011;6087;48.982;12.064;2023-05-07T10:30:07;3.58;;;3.28;;
12052;SDS011;6087;48.982;12.064;2023-05-07T10:32:45;5.18;;;3.75;;
12052;SDS011;6087;48.982;12.064;2023-05-07T10:35:19;5.00;;;4.03;;
12052;SDS011;6087;48.982;12.064;2023-05-07T10:37:49;4.10;;;3.60;;
12052;SDS011;6087;48.982;12.064;2023-05-07T10:40:16;3.88;;;3.47;;
12052;SDS011;6087;48.982;12.064;2023-05-07T10:42:54;4.15;;;3.72;;
12052;SDS011;6087;48.982;12.064;2023-05-07T10:45:28;4.07;;;3.72;;
12052;SDS011;6087;48.982;12.064;2023-05-07T10:48:08;3.58;;;3.28;;
12052;SDS011;6087;48.982;12.064;2023-05-07T10:50:37;4.85;;;4.32;;
12052;SDS011;6087;48.982;12.064;2023-05-07T10:53:20;3.92;;;3.63;;
12052;SDS011;6087;48.982;12.064;2023-05-07T10:55:51;3.30;;;3.00;;
12052;SDS011;6087;48.982;12.064;2023-05-07T10:58:38;3.55;;;3.25;;
12052;SDS011;6087;48.982;12.064;2023-05-07T11:01:06;4.95;;;4.45;;
12052;SDS011;6087;48.982;12.064;2023-05-07T11:03:35;3.90;;;3.58;;
12052;SDS011;6087;48.982;12.064;2023-05-07T11:06:08;4.40;;;3.65;;
12052;SDS011;6087;48.982;12.064;2023-05-07T11:08:55;3.53;;;3.22;;
12052;SDS011;6087;48.982;12.064;2023-05-07T11:14:13;5.05;;;3.83;;
12052;SDS011;6087;48.982;12.064;2023-05-07T11:16:41;3.30;;;3.10;;
12052;SDS011;6087;48.982;12.064;2023-05-07T11:19:10;3.35;;;3.05;;
12052;SDS011;6087;48.982;12.064;2023-05-07T11:21:37;3.63;;;3.10;;
12052;SDS011;6087;48.982;12.064;2023-05-07T11:24:05;4.20;;;3.83;;
12052;SDS011;6087;48.982;12.064;2023-05-07T11:26:46;4.95;;;4.38;;
12052;SDS011;6087;48.982;12.064;2023-05-07T11:29:15;7.15;;;4.43;;
12052;SDS011;6087;48.982;12.064;2023-05-07T11:31:44;4.13;;;3.83;;
12052;SDS011;6087;48.982;12.064;2023-05-07T11:34:15;3.88;;;3.58;;
12052;SDS011;6087;48.982;12.064;2023-05-07T11:36:46;4.10;;;3.70;;
12052;SDS011;6087;48.982;12.064;2023-05-07T11:39:24;5.43;;;4.93;;
12052;SDS011;6087;48.982;12.064;2023-05-07T11:41:55;4.15;;;3.75;;
12052;SDS011;6087;48.982;12.064;2023-05-07T11:44:22;3.83;;;3.53;;
12052;SDS011;6087;48.982;12.064;2023-05-07T11:46:50;3.35;;;3.03;;
12052;SDS011;6087;48.982;12.064;2023-05-07T11:49:17;4.20;;;3.80;;
12052;SDS011;6087;48.982;12.064;2023-05-07T11:51:45;3.45;;;3.10;;
12052;SDS011;6087;48.982;12.064;2023-05-07T11:54:12;3.47;;;3.17;;
12052;SDS011;6087;48.982;12.064;2023-05-07T11:56:43;3.60;;;3.30;;
12052;SDS011;6087;48.982;12.064;2023-05-07T11:59:11;4.90;;;4.03;;
12052;SDS011;6087;48.982;12.064;2023-05-07T12:01:38;4.18;;;3.78;;
12052;SDS011;6087;48.982;12.064;2023-05-07T12:04:06;3.33;;;3.03;;
12052;SDS011;6087;48.982;12.064;2023-05-07T12:06:36;2.70;;;2.50;;
12052;SDS011;6087;48.982;12.064;2023-05-07T12:09:04;3.10;;;2.90;;
12052;SDS011;6087;48.982;12.064;2023-05-07T12:11:32;3.22;;;2.42;;
12052;SDS011;6087;48.982;12.064;2023-05-07T12:14:00;4.00;;;2.35;;
12052;SDS011;6087;48.982;12.064;2023-05-07T12:16:27;2.22;;;2.03;;
12052;SDS011;6087;48.982;12.064;2023-05-07T12:18:54;3.90;;;2.78;;
12052;SDS011;6087;48.982;12.064;2023-05-07T12:21:28;3.15;;;2.83;;
12052;SDS011;6087;48.982;12.064;2023-05-07T12:23:56;3.78;;;3.47;;
12052;SDS011;6087;48.982;12.064;2023-05-07T12:26:26;3.80;;;3.50;;
12052;SDS011;6087;48.982;12.064;2023-05-07T12:28:53;4.35;;;3.65;;
12052;SDS011;6087;48.982;12.064;2023-05-07T12:31:20;3.83;;;3.53;;
12052;SDS011;6087;48.982;12.064;2023-05-07T12:33:49;3.95;;;3.65;;
12052;SDS011;6087;48.982;12.064;2023-05-07T12:36:16;3.83;;;3.53;;
12052;SDS011;6087;48.982;12.064;2023-05-07T12:38:44;3.40;;;3.10;;
12052;SDS011;6087;48.982;12.064;2023-05-07T12:41:11;3.60;;;3.30;;
12052;SDS011;6087;48.982;12.064;2023-05-07T12:43:38;4.00;;;3.70;;
12052;SDS011;6087;48.982;12.064;2023-05-07T12:46:05;4.28;;;3.35;;
12052;SDS011;6087;48.982;12.064;2023-05-07T12:48:33;4.65;;;3.92;;
12052;SDS011;6087;48.982;12.064;2023-05-07T12:51:02;3.42;;;3.03;;
12052;SDS011;6087;48.982;12.064;2023-05-07T12:53:29;3.42;;;3.13;;
12052;SDS011;6087;48.982;12.064;2023-05-07T12:55:58;4.00;;;3.30;;
12052;SDS011;6087;48.982;12.064;2023-05-07T12:58:26;3.50;;;3.20;;
12052;SDS011;6087;48.982;12.064;2023-05-07T13:00:54;3.50;;;3.25;;
12052;SDS011;6087;48.982;12.064;2023-05-07T13:03:27;4.22;;;3.83;;
12052;SDS011;6087;48.982;12.064;2023-05-07T13:05:58;4.55;;;3.47;;
12052;SDS011;6087;48.982;12.064;2023-05-07T13:08:26;3.38;;;3.10;;
12052;SDS011;6087;48.982;12.064;2023-05-07T13:10:55;3.22;;;2.97;;
12052;SDS011;6087;48.982;12.064;2023-05-07T13:13:24;3.22;;;2.85;;
12052;SDS011;6087;48.982;12.064;2023-05-07T13:15:50;3.30;;;3.10;;
12052;SDS011;6087;48.982;12.064;2023-05-07T13:18:17;3.53;;;3.22;;
12052;SDS011;6087;48.982;12.064;2023-05-07T13:20:47;3.53;;;2.88;;
12052;SDS011;6087;48.982;12.064;2023-05-07T13:23:14;3.60;;;2.72;;
12052;SDS011;6087;48.982;12.064;2023-05-07T13:25:40;3.38;;;2.88;;
12052;SDS011;6087;48.982;12.064;2023-05-07T13:28:07;4.30;;;2.75;;
12052;SDS011;6087;48.982;12.064;2023-05-07T13:30:35;3.17;;;2.88;;
12052;SDS011;6087;48.982;12.064;2023-05-07T13:33:02;4.32;;;2.75;;
12052;SDS011;6087;48.982;12.064;2023-05-07T13:35:29;3.38;;;3.08;;
12052;SDS011;6087;48.982;12.064;2023-05-07T13:37:56;3.60;;;2.55;;
12052;SDS011;6087;48.982;12.064;2023-05-07T13:40:23;3.55;;;2.75;;
12052;SDS011;6087;48.982;12.064;2023-05-07T13:42:50;4.13;;;3.03;;
12052;SDS011;6087;48.982;12.064;2023-05-07T13:45:17;2.72;;;2.53;;
12052;SDS011;6087;48.982;12.064;2023-05-07T13:47:46;4.03;;;2.88;;
12052;SDS011;6087;48.982;12.064;2023-05-07T13:50:14;3.22;;;2.92;;
12052;SDS011;6087;48.982;12.064;2023-05-07T13:52:42;2.67;;;2.47;;
12052;SDS011;6087;48.982;12.064;2023-05-07T13:55:12;2.80;;;2.60;;
12052;SDS011;6087;48.982;12.064;2023-05-07T13:57:39;2.65;;;2.45;;
12052;SDS011;6087;48.982;12.064;2023-05-07T14:00:06;3.97;;;2.45;;
12052;SDS011;6087;48.982;12.064;2023-05-07T14:02:34;2.97;;;2.78;;
12052;SDS011;6087;48.982;12.064;2023-05-07T14:05:02;3.47;;;2.45;;
12052;SDS011;6087;48.982;12.064;2023-05-07T14:07:31;2.70;;;2.50;;
12052;SDS011;6087;48.982;12.064;2023-05-07T14:09:57;2.90;;;2.70;;
12052;SDS011;6087;48.982;12.064;2023-05-07T14:12:24;3.30;;;2.60;;
12052;SDS011;6087;48.982;12.064;2023-05-07T14:14:51;3.47;;;2.78;;
12052;SDS011;6087;48.982;12.064;2023-05-07T14:17:18;2.17;;;1.98;;
12052;SDS011;6087;48.982;12.064;2023-05-07T14:19:48;2.50;;;2.30;;
12052;SDS011;6087;48.982;12.064;2023-05-07T14:22:16;2.50;;;2.30;;
12052;SDS011;6087;48.982;12.064;2023-05-07T14:24:43;2.20;;;2.00;;
12052;SDS011;6087;48.982;12.064;2023-05-07T14:27:13;2.78;;;1.92;;
12052;SDS011;6087;48.982;12.064;2023-05-07T14:29:40;2.50;;;2.30;;
12052;SDS011;6087;48.982;12.064;2023-05-07T14:32:07;2.42;;;2.13;;
12052;SDS011;6087;48.982;12.064;2023-05-07T14:34:34;2.00;;;1.80;;
12052;SDS011;6087;48.982;12.064;2023-05-07T14:37:01;2.40;;;2.20;;
12052;SDS011;6087;48.982;12.064;2023-05-07T14:39:31;2.35;;;2.15;;
12052;SDS011;6087;48.982;12.064;2023-05-07T14:41:58;2.58;;;2.38;;
12052;SDS011;6087;48.982;12.064;2023-05-07T14:44:24;3.33;;;2.88;;
12052;SDS011;6087;48.982;12.064;2023-05-07T14:46:51;2.78;;;2.50;;
12052;SDS011;6087;48.982;12.064;2023-05-07T14:49:18;3.10;;;2.88;;
12052;SDS011;6087;48.982;12.064;2023-05-07T14:51:45;2.78;;;2.58;;
12052;SDS011;6087;48.982;12.064;2023-05-07T14:54:12;3.63;;;2.70;;
12052;SDS011;6087;48.982;12.064;2023-05-07T14:56:41;3.60;;;2.75;;